Time,TemperatureF,DewpointF,PressureIn,WindDirection,WindDirectionDegrees,WindSpeedMPH,WindSpeedGustMPH,Humidity,HourlyPrecipIn,Conditions,Clouds,dailyrainin,SoftwareType,DateUTC
2013-01-09 00:02:00,39.0,33.0,30.22,SSE,163,5.0,7.0,79,0.00,,,0.00,,2013-01-09 06:02:00,
2013-01-09 00:12:00,39.0,33.0,30.22,SSE,163,5.0,7.0,79,0.00,,,0.00,,2013-01-09 06:12:00,
2013-01-09 00:22:00,39.0,33.0,30.24,South,171,5.0,7.0,79,0.00,,,0.00,,2013-01-09 06:22:00,
2013-01-09 00:32:00,39.0,33.0,30.24,South,170,2.0,5.0,79,0.00,,,0.00,,2013-01-09 06:32:00,
2013-01-09 00:42:00,39.0,33.0,30.24,South,170,2.0,5.0,79,0.00,,,0.00,,2013-01-09 06:42:00,
2013-01-09 00:52:00,39.0,33.0,30.24,SSE,168,3.0,5.0,80,0.00,,,0.00,,2013-01-09 06:52:00,
2013-01-09 01:02:00,39.0,33.0,30.25,South,171,1.0,4.0,79,0.00,,,0.00,,2013-01-09 07:02:00,
2013-01-09 01:12:00,39.0,33.0,30.25,South,171,1.0,4.0,79,0.00,,,0.00,,2013-01-09 07:12:00,
2013-01-09 01:22:00,40.0,34.0,30.25,South,178,2.0,5.0,78,0.00,,,0.00,,2013-01-09 07:22:00,
2013-01-09 01:32:00,40.0,34.0,30.26,South,190,1.0,4.0,79,0.00,,,0.00,,2013-01-09 07:32:00,
2013-01-09 01:42:00,40.0,34.0,30.26,South,190,1.0,4.0,79,0.00,,,0.00,,2013-01-09 07:42:00,
2013-01-09 01:52:00,40.0,34.0,30.27,South,190,1.0,4.0,79,0.00,,,0.00,,2013-01-09 07:52:00,
2013-01-09 02:02:00,40.0,34.0,30.27,South,190,0.0,2.0,78,0.00,,,0.00,,2013-01-09 08:02:00,
2013-01-09 02:12:00,40.0,34.0,30.27,South,190,0.0,2.0,78,0.00,,,0.00,,2013-01-09 08:12:00,
2013-01-09 02:22:00,41.0,34.0,30.28,South,190,1.0,2.0,77,0.00,,,0.00,,2013-01-09 08:22:00,
2013-01-09 02:32:00,41.0,35.0,30.29,WSW,238,0.0,2.0,78,0.00,,,0.00,,2013-01-09 08:32:00,
2013-01-09 02:42:00,41.0,35.0,30.29,WSW,238,0.0,2.0,78,0.00,,,0.00,,2013-01-09 08:42:00,
2013-01-09 02:53:00,40.0,35.0,30.29,WSW,238,0.0,2.0,81,0.01,,,0.01,,2013-01-09 08:53:00,
2013-01-09 03:02:00,40.0,35.0,30.30,West,268,0.0,2.0,83,0.02,,,0.02,,2013-01-09 09:02:00,
2013-01-09 03:12:00,40.0,35.0,30.30,West,268,0.0,2.0,83,0.02,,,0.02,,2013-01-09 09:12:00,
2013-01-09 03:22:00,40.0,36.0,30.30,West,268,0.0,2.0,86,0.03,,,0.03,,2013-01-09 09:22:00,
2013-01-09 03:32:00,39.0,36.0,30.31,West,268,0.0,0.0,88,0.04,,,0.04,,2013-01-09 09:32:00,
2013-01-09 03:42:00,39.0,36.0,30.31,West,268,0.0,0.0,88,0.04,,,0.04,,2013-01-09 09:42:00,
2013-01-09 03:53:00,39.0,36.0,30.30,West,261,1.0,4.0,90,0.04,,,0.05,,2013-01-09 09:53:00,
2013-01-09 04:02:00,39.0,37.0,30.30,WSW,242,2.0,5.0,91,0.05,,,0.07,,2013-01-09 10:02:00,
2013-01-09 04:12:00,39.0,37.0,30.30,WSW,242,2.0,5.0,91,0.05,,,0.07,,2013-01-09 10:12:00,
2013-01-09 04:22:00,39.0,37.0,30.31,WSW,239,3.0,6.0,93,0.05,,,0.08,,2013-01-09 10:22:00,
2013-01-09 04:32:00,38.0,36.0,30.32,West,259,1.0,5.0,92,0.05,,,0.09,,2013-01-09 10:32:00,
2013-01-09 04:42:00,38.0,36.0,30.32,West,259,1.0,5.0,92,0.05,,,0.09,,2013-01-09 10:42:00,
2013-01-09 04:52:00,39.0,37.0,30.32,WSW,257,2.0,4.0,94,0.05,,,0.10,,2013-01-09 10:52:00,
2013-01-09 05:02:00,39.0,37.0,30.32,WSW,256,2.0,3.0,94,0.05,,,0.12,,2013-01-09 11:02:00,
2013-01-09 05:12:00,39.0,37.0,30.32,WSW,256,2.0,3.0,94,0.05,,,0.12,,2013-01-09 11:12:00,
2013-01-09 05:22:00,39.0,38.0,30.32,WSW,256,2.0,4.0,95,0.05,,,0.13,,2013-01-09 11:22:00,
2013-01-09 05:32:00,37.0,35.0,30.32,WSW,256,1.0,3.0,93,0.05,,,0.14,,2013-01-09 11:32:00,
2013-01-09 05:42:00,37.0,35.0,30.32,WSW,256,1.0,3.0,93,0.05,,,0.14,,2013-01-09 11:42:00,
2013-01-09 05:53:00,38.0,37.0,30.32,WSW,256,0.0,2.0,95,0.05,,,0.15,,2013-01-09 11:53:00,
2013-01-09 06:03:00,37.0,36.0,30.32,WSW,256,0.0,2.0,95,0.05,,,0.17,,2013-01-09 12:03:00,
2013-01-09 06:12:00,37.0,36.0,30.32,WSW,256,0.0,2.0,95,0.05,,,0.17,,2013-01-09 12:12:00,
2013-01-09 06:23:00,38.0,37.0,30.33,SSW,203,3.0,5.0,95,0.05,,,0.18,,2013-01-09 12:23:00,
2013-01-09 06:33:00,37.0,36.0,30.34,SSW,203,1.0,2.0,95,0.05,,,0.19,,2013-01-09 12:33:00,
2013-01-09 06:43:00,37.0,36.0,30.34,SSW,203,1.0,2.0,95,0.05,,,0.19,,2013-01-09 12:43:00,
2013-01-09 06:53:00,38.0,37.0,30.34,SSW,203,0.0,0.0,95,0.04,,,0.20,,2013-01-09 12:53:00,
2013-01-09 07:02:00,38.0,37.0,30.35,SSW,203,0.0,1.0,95,0.03,,,0.20,,2013-01-09 13:02:00,
2013-01-09 07:12:00,38.0,37.0,30.35,SSW,203,0.0,1.0,95,0.03,,,0.20,,2013-01-09 13:12:00,
2013-01-09 07:23:00,38.0,37.0,30.35,SSW,203,0.0,2.0,96,0.02,,,0.20,,2013-01-09 13:23:00,
2013-01-09 07:33:00,38.0,37.0,30.36,SSW,203,0.0,1.0,96,0.01,,,0.20,,2013-01-09 13:33:00,
2013-01-09 07:43:00,38.0,37.0,30.36,SSW,203,0.0,1.0,96,0.01,,,0.20,,2013-01-09 13:43:00,
2013-01-09 07:53:00,38.0,37.0,30.36,SSW,203,0.0,1.0,96,0.01,,,0.20,,2013-01-09 13:53:00,
2013-01-09 08:03:00,38.0,37.0,30.37,SSW,203,0.0,0.0,96,0.00,,,0.20,,2013-01-09 14:03:00,
2013-01-09 08:12:00,38.0,37.0,30.37,SSW,203,0.0,0.0,96,0.00,,,0.20,,2013-01-09 14:12:00,
2013-01-09 08:22:00,38.0,37.0,30.38,SSW,203,0.0,1.0,96,0.00,,,0.20,,2013-01-09 14:22:00,
2013-01-09 08:33:00,39.0,38.0,30.39,SSW,203,0.0,0.0,96,0.00,,,0.20,,2013-01-09 14:33:00,
2013-01-09 08:43:00,39.0,38.0,30.39,SSW,203,0.0,0.0,96,0.00,,,0.20,,2013-01-09 14:43:00,
2013-01-09 08:53:00,39.0,38.0,30.40,SSW,203,0.0,0.0,96,0.00,,,0.20,,2013-01-09 14:53:00,
2013-01-09 09:03:00,41.0,40.0,30.41,SSW,203,0.0,0.0,96,0.00,,,0.20,,2013-01-09 15:03:00,
2013-01-09 09:12:00,41.0,40.0,30.41,SSW,203,0.0,0.0,96,0.00,,,0.20,,2013-01-09 15:12:00,
2013-01-09 09:23:00,43.0,42.0,30.41,SSW,203,0.0,0.0,96,0.00,,,0.20,,2013-01-09 15:23:00,
2013-01-09 09:33:00,42.0,41.0,30.42,SSW,203,0.0,1.0,96,0.00,,,0.20,,2013-01-09 15:33:00,
2013-01-09 09:42:00,42.0,41.0,30.42,SSW,203,0.0,1.0,96,0.00,,,0.20,,2013-01-09 15:42:00,
2013-01-09 09:53:00,43.0,42.0,30.42,SSW,203,1.0,2.0,95,0.00,,,0.20,,2013-01-09 15:53:00,
2013-01-09 10:03:00,42.0,41.0,30.42,SSW,203,0.0,2.0,95,0.00,,,0.20,,2013-01-09 16:03:00,
2013-01-09 10:12:00,42.0,41.0,30.42,SSW,203,0.0,2.0,95,0.00,,,0.20,,2013-01-09 16:12:00,
2013-01-09 10:23:00,43.0,42.0,30.43,SSW,203,1.0,4.0,96,0.00,,,0.20,,2013-01-09 16:23:00,
2013-01-09 10:33:00,45.0,44.0,30.43,SSW,204,1.0,4.0,96,0.00,,,0.20,,2013-01-09 16:33:00,
2013-01-09 10:43:00,45.0,44.0,30.43,SSW,204,1.0,4.0,96,0.00,,,0.20,,2013-01-09 16:43:00,
2013-01-09 10:53:00,45.0,44.0,30.43,SSW,204,1.0,2.0,96,0.00,,,0.20,,2013-01-09 16:53:00,
2013-01-09 11:02:00,45.0,44.0,30.42,SSW,204,1.0,3.0,95,0.00,,,0.20,,2013-01-09 17:02:00,
2013-01-09 11:12:00,45.0,44.0,30.42,SSW,204,1.0,3.0,95,0.00,,,0.20,,2013-01-09 17:12:00,
2013-01-09 11:23:00,46.0,44.0,30.41,SW,217,1.0,4.0,94,0.00,,,0.20,,2013-01-09 17:23:00,
2013-01-09 11:32:00,48.0,45.0,30.41,SW,234,0.0,4.0,91,0.00,,,0.20,,2013-01-09 17:32:00,
2013-01-09 11:43:00,48.0,45.0,30.41,SW,234,0.0,4.0,91,0.00,,,0.20,,2013-01-09 17:43:00,
2013-01-09 11:53:00,49.0,45.0,30.41,WNW,298,1.0,5.0,85,0.00,,,0.20,,2013-01-09 17:53:00,
2013-01-09 12:03:00,50.0,45.0,30.40,West,265,2.0,7.0,83,0.00,,,0.20,,2013-01-09 18:03:00,
2013-01-09 12:12:00,50.0,45.0,30.40,West,265,2.0,7.0,83,0.00,,,0.20,,2013-01-09 18:12:00,
2013-01-09 12:23:00,51.0,45.0,30.41,WNW,290,3.0,6.0,79,0.00,,,0.20,,2013-01-09 18:23:00,
2013-01-09 12:33:00,51.0,44.0,30.41,NW,315,3.0,6.0,77,0.00,,,0.20,,2013-01-09 18:33:00,
2013-01-09 12:43:00,51.0,44.0,30.41,NW,315,3.0,6.0,77,0.00,,,0.20,,2013-01-09 18:43:00,
2013-01-09 12:53:00,50.0,43.0,30.41,NW,317,5.0,9.0,76,0.00,,,0.20,,2013-01-09 18:53:00,
2013-01-09 13:03:00,50.0,43.0,30.41,NNW,336,3.0,6.0,77,0.00,,,0.20,,2013-01-09 19:03:00,
2013-01-09 13:12:00,50.0,43.0,30.41,NNW,336,3.0,6.0,77,0.00,,,0.20,,2013-01-09 19:12:00,
2013-01-09 13:22:00,50.0,42.0,30.41,NNW,346,4.0,8.0,74,0.00,,,0.20,,2013-01-09 19:22:00,
2013-01-09 13:33:00,51.0,43.0,30.41,NNW,327,2.0,5.0,73,0.00,,,0.20,,2013-01-09 19:33:00,
2013-01-09 13:43:00,51.0,43.0,30.41,NNW,327,2.0,5.0,73,0.00,,,0.20,,2013-01-09 19:43:00,
2013-01-09 13:53:00,51.0,41.0,30.41,NNW,336,3.0,7.0,69,0.00,,,0.20,,2013-01-09 19:53:00,
2013-01-09 14:02:00,52.0,42.0,30.41,NW,316,1.0,4.0,68,0.00,,,0.20,,2013-01-09 20:02:00,
2013-01-09 14:12:00,52.0,42.0,30.41,NW,316,1.0,4.0,68,0.00,,,0.20,,2013-01-09 20:12:00,
2013-01-09 14:23:00,52.0,42.0,30.41,NW,316,1.0,4.0,68,0.00,,,0.20,,2013-01-09 20:23:00,
2013-01-09 14:33:00,53.0,42.0,30.42,NW,316,0.0,2.0,66,0.00,,,0.20,,2013-01-09 20:33:00,
2013-01-09 14:42:00,53.0,42.0,30.42,NW,316,0.0,2.0,66,0.00,,,0.20,,2013-01-09 20:42:00,
2013-01-09 14:53:00,54.0,44.0,30.42,NW,316,0.0,1.0,70,0.00,,,0.20,,2013-01-09 20:53:00,
2013-01-09 15:03:00,54.0,44.0,30.42,NW,316,0.0,1.0,68,0.00,,,0.20,,2013-01-09 21:03:00,
2013-01-09 15:12:00,54.0,44.0,30.42,NW,316,0.0,1.0,68,0.00,,,0.20,,2013-01-09 21:12:00,
2013-01-09 15:22:00,53.0,43.0,30.43,NW,316,0.0,0.0,70,0.00,,,0.20,,2013-01-09 21:22:00,
2013-01-09 15:33:00,53.0,45.0,30.43,NW,316,0.0,0.0,73,0.00,,,0.20,,2013-01-09 21:33:00,
2013-01-09 15:43:00,53.0,45.0,30.43,NW,316,0.0,0.0,73,0.00,,,0.20,,2013-01-09 21:43:00,
2013-01-09 15:53:00,52.0,45.0,30.44,NW,316,0.0,2.0,77,0.00,,,0.20,,2013-01-09 21:53:00,
2013-01-09 16:03:00,50.0,44.0,30.44,NW,316,0.0,1.0,79,0.00,,,0.20,,2013-01-09 22:03:00,
2013-01-09 16:12:00,50.0,44.0,30.44,NW,316,0.0,1.0,79,0.00,,,0.20,,2013-01-09 22:12:00,
2013-01-09 16:23:00,49.0,42.0,30.44,NW,316,0.0,0.0,78,0.00,,,0.20,,2013-01-09 22:23:00,
2013-01-09 16:33:00,49.0,42.0,30.45,NW,316,0.0,0.0,76,0.00,,,0.20,,2013-01-09 22:33:00,
2013-01-09 16:43:00,49.0,42.0,30.45,NW,316,0.0,0.0,76,0.00,,,0.20,,2013-01-09 22:43:00,
2013-01-09 16:52:00,48.0,41.0,30.46,NW,316,0.0,0.0,78,0.00,,,0.20,,2013-01-09 22:52:00,
2013-01-09 17:02:00,46.0,41.0,30.47,NW,316,0.0,1.0,81,0.00,,,0.20,,2013-01-09 23:02:00,
2013-01-09 17:13:00,46.0,41.0,30.47,NW,316,0.0,1.0,81,0.00,,,0.20,,2013-01-09 23:13:00,
2013-01-09 17:22:00,45.0,40.0,30.46,NW,316,0.0,1.0,82,0.00,,,0.20,,2013-01-09 23:22:00,
2013-01-09 17:33:00,45.0,40.0,30.46,NW,316,0.0,1.0,82,0.00,,,0.20,,2013-01-09 23:33:00,
2013-01-09 17:43:00,45.0,40.0,30.46,NW,316,0.0,1.0,82,0.00,,,0.20,,2013-01-09 23:43:00,
2013-01-09 17:53:00,41.0,37.0,30.47,NW,316,0.0,0.0,85,0.00,,,0.20,,2013-01-09 23:53:00,
2013-01-09 18:03:00,40.0,37.0,30.47,NW,323,1.0,3.0,88,0.00,,,0.20,,2013-01-10 00:03:00,
2013-01-09 18:12:00,40.0,37.0,30.47,NW,323,1.0,3.0,88,0.00,,,0.20,,2013-01-10 00:12:00,
2013-01-09 18:22:00,41.0,37.0,30.48,NW,323,0.0,2.0,84,0.00,,,0.20,,2013-01-10 00:22:00,
2013-01-09 18:32:00,41.0,37.0,30.48,NW,323,0.0,2.0,84,0.00,,,0.20,,2013-01-10 00:32:00,
2013-01-09 18:42:00,41.0,37.0,30.48,NW,323,0.0,2.0,84,0.00,,,0.20,,2013-01-10 00:42:00,
2013-01-09 18:53:00,39.0,35.0,30.49,NW,323,0.0,2.0,87,0.00,,,0.20,,2013-01-10 00:53:00,
2013-01-09 19:02:00,40.0,35.0,30.50,NW,323,1.0,2.0,82,0.00,,,0.20,,2013-01-10 01:02:00,
2013-01-09 19:12:00,40.0,35.0,30.50,NW,323,1.0,2.0,82,0.00,,,0.20,,2013-01-10 01:12:00,
2013-01-09 19:22:00,40.0,36.0,30.50,NW,323,0.0,1.0,86,0.00,,,0.20,,2013-01-10 01:22:00,
2013-01-09 19:32:00,38.0,34.0,30.51,NW,323,0.0,0.0,86,0.00,,,0.20,,2013-01-10 01:32:00,
2013-01-09 19:42:00,38.0,34.0,30.51,NW,323,0.0,0.0,86,0.00,,,0.20,,2013-01-10 01:42:00,
2013-01-09 19:53:00,38.0,34.0,30.51,NW,323,1.0,2.0,87,0.00,,,0.20,,2013-01-10 01:53:00,
2013-01-09 20:02:00,37.0,34.0,30.51,NW,323,2.0,3.0,89,0.00,,,0.20,,2013-01-10 02:02:00,
2013-01-09 20:12:00,37.0,34.0,30.51,NW,323,2.0,3.0,89,0.00,,,0.20,,2013-01-10 02:12:00,
2013-01-09 20:22:00,37.0,33.0,30.51,NW,323,0.0,4.0,85,0.00,,,0.20,,2013-01-10 02:22:00,
2013-01-09 20:32:00,37.0,34.0,30.50,NW,323,4.0,5.0,89,0.00,,,0.20,,2013-01-10 02:32:00,
2013-01-09 20:42:00,37.0,34.0,30.50,NW,323,4.0,5.0,89,0.00,,,0.20,,2013-01-10 02:42:00,
2013-01-09 20:52:00,37.0,34.0,30.50,NW,323,4.0,5.0,89,0.00,,,0.20,,2013-01-10 02:52:00,
2013-01-09 21:02:00,37.0,33.0,30.51,NNE,26,0.0,4.0,84,0.00,,,0.20,,2013-01-10 03:02:00,
2013-01-09 21:12:00,37.0,33.0,30.51,NNE,26,0.0,4.0,84,0.00,,,0.20,,2013-01-10 03:12:00,
2013-01-09 21:22:00,37.0,33.0,30.51,NNE,26,0.0,4.0,84,0.00,,,0.20,,2013-01-10 03:22:00,
2013-01-09 21:32:00,37.0,33.0,30.50,NNE,26,3.0,5.0,85,0.00,,,0.20,,2013-01-10 03:32:00,
2013-01-09 21:42:00,37.0,33.0,30.50,NNE,26,3.0,5.0,85,0.00,,,0.20,,2013-01-10 03:42:00,
2013-01-09 21:53:00,38.0,34.0,30.51,NNE,26,2.0,4.0,84,0.00,,,0.20,,2013-01-10 03:53:00,
2013-01-09 22:02:00,38.0,34.0,30.52,NNE,26,1.0,5.0,84,0.00,,,0.20,,2013-01-10 04:02:00,
2013-01-09 22:12:00,38.0,34.0,30.52,NNE,26,1.0,5.0,84,0.00,,,0.20,,2013-01-10 04:12:00,
2013-01-09 22:22:00,38.0,34.0,30.52,NNE,26,1.0,4.0,84,0.00,,,0.20,,2013-01-10 04:22:00,
2013-01-09 22:32:00,38.0,34.0,30.52,NNE,26,1.0,4.0,84,0.00,,,0.20,,2013-01-10 04:32:00,
2013-01-09 22:42:00,38.0,34.0,30.52,NNE,26,1.0,4.0,84,0.00,,,0.20,,2013-01-10 04:42:00,
2013-01-09 22:52:00,38.0,34.0,30.53,NNE,26,0.0,2.0,84,0.00,,,0.20,,2013-01-10 04:52:00,
2013-01-09 23:03:00,37.0,33.0,30.53,NNE,26,0.0,1.0,84,0.00,,,0.20,,2013-01-10 05:03:00,
2013-01-09 23:12:00,37.0,33.0,30.53,NNE,26,0.0,1.0,84,0.00,,,0.20,,2013-01-10 05:12:00,
2013-01-09 23:22:00,36.0,32.0,30.52,NNE,26,1.0,2.0,86,0.00,,,0.20,,2013-01-10 05:22:00,
2013-01-09 23:33:00,35.0,32.0,30.52,NNE,26,0.0,1.0,87,0.00,,,0.20,,2013-01-10 05:33:00,
2013-01-09 23:42:00,35.0,32.0,30.52,NNE,26,0.0,1.0,87,0.00,,,0.20,,2013-01-10 05:42:00,
2013-01-09 23:53:00,35.0,32.0,30.52,NNE,26,0.0,1.0,87,0.00,,,0.20,,2013-01-10 05:53:00,